Time;durP1;ratioP1;P1;durP2;ratioP2;P2;SDS_P1;SDS_P2;PMS_P1;PMS_P2;Temp;Humidity;BMP_temperature;BMP_pressure;BME280_temperature;BME280_humidity;BME280_pressure;Samples;Min_cycle;Max_cycle;Signal;HPM_P1;HPM_P2
2022/10/02 00:02:22;;;;;;;5.97;4.47;;;;;;;18.99;82.66;96586.78;5090601;28;20278;-79
2022/10/02 00:04:59;;;;;;;6.47;4.77;;;;;;;19.15;81.91;96560.84;5089671;28;20800;-80
2022/10/02 00:07:33;;;;;;;6.07;4.73;;;;;;;19.04;81.29;96547.81;5055328;28;20198;-79
2022/10/02 00:10:27;;;;;;;6.57;4.23;;;;;;;19.27;80.66;96536.16;5105553;28;20196;-79
2022/10/02 00:12:59;;;;;;;7.33;4.63;;;;;;;19.37;80.03;96523.88;5091131;28;20195;-80
2022/10/02 00:15:29;;;;;;;5.90;4.13;;;;;;;19.34;80.32;96524.19;5090364;28;20183;-78
2022/10/02 00:18:06;;;;;;;6.43;5.30;;;;;;;19.28;81.28;96522.06;5089584;28;20278;-78
2022/10/02 00:20:44;;;;;;;4.90;4.40;;;;;;;19.32;82.02;96535.75;5089876;28;20225;-78
2022/10/02 00:23:18;;;;;;;7.93;4.83;;;;;;;19.33;81.63;96527.75;5090257;28;20195;-79
2022/10/02 00:26:00;;;;;;;9.47;5.40;;;;;;;19.32;81.77;96510.31;5089128;28;20232;-78
2022/10/02 00:28:34;;;;;;;8.27;5.10;;;;;;;19.31;81.40;96490.28;5089907;28;20194;-79
2022/10/02 00:31:31;;;;;;;6.40;4.93;;;;;;;19.30;82.02;96498.28;5088212;28;20618;-79
2022/10/02 00:34:07;;;;;;;10.23;4.90;;;;;;;18.97;82.86;96488.16;5089194;28;20188;-79
2022/10/02 00:37:02;;;;;;;7.27;4.83;;;;;;;18.58;84.45;96476.72;5105044;28;20276;-79
2022/10/02 00:39:55;;;;;;;11.23;5.13;;;;;;;18.39;84.89;96464.31;5092631;28;20224;-78
2022/10/02 00:42:37;;;;;;;7.07;4.87;;;;;;;18.47;84.79;96461.06;5091048;28;20196;-78
2022/10/02 00:45:33;;;;;;;6.30;5.20;;;;;;;18.66;84.46;96451.47;5109718;28;20189;-78
2022/10/02 00:48:20;;;;;;;7.80;4.73;;;;;;;18.35;84.64;96426.22;5108901;28;20643;-79
2022/10/02 00:51:13;;;;;;;7.33;4.13;;;;;;;18.23;84.93;96416.81;5109464;28;20244;-79
2022/10/02 00:53:59;;;;;;;6.30;3.83;;;;;;;18.40;84.34;96410.09;5109764;28;20193;-79
2022/10/02 00:56:44;;;;;;;6.00;4.20;;;;;;;18.58;83.37;96419.00;5108650;28;20898;-79
2022/10/02 00:59:23;;;;;;;6.93;4.00;;;;;;;18.68;83.93;96440.84;5109492;28;20220;-79
2022/10/02 01:01:58;;;;;;;7.43;5.13;;;;;;;18.82;83.92;96460.63;5109455;28;20197;-78
2022/10/02 01:04:32;;;;;;;7.40;4.60;;;;;;;18.84;82.82;96458.69;5109085;28;20189;-80
2022/10/02 01:07:02;;;;;;;7.27;4.83;;;;;;;18.47;84.11;96476.78;5072313;28;20188;-80
2022/10/02 01:09:29;;;;;;;7.23;5.20;;;;;;;18.63;84.92;96469.25;5090814;28;20921;-80
2022/10/02 01:11:56;;;;;;;7.53;4.80;;;;;;;18.61;84.76;96460.69;5110400;28;20196;-79
2022/10/02 01:14:38;;;;;;;6.37;5.10;;;;;;;18.77;83.38;96462.84;5109005;28;20183;-81
2022/10/02 01:17:21;;;;;;;6.70;4.83;;;;;;;18.77;83.57;96457.59;5090869;28;20631;-79
2022/10/02 01:19:49;;;;;;;8.00;4.60;;;;;;;18.79;82.88;96455.66;5109399;28;20226;-80
2022/10/02 01:22:28;;;;;;;11.37;5.40;;;;;;;18.28;84.52;96453.09;5108566;28;20183;-80
2022/10/02 01:24:56;;;;;;;8.70;4.87;;;;;;;18.15;85.97;96450.69;5109489;28;20766;-80
2022/10/02 01:27:25;;;;;;;9.33;5.30;;;;;;;18.12;86.04;96444.88;5108748;28;20185;-81
2022/10/02 01:30:06;;;;;;;7.17;4.77;;;;;;;18.23;85.81;96443.00;5108959;28;20264;-80
2022/10/02 01:32:37;;;;;;;12.53;5.47;;;;;;;18.31;85.59;96429.22;5091148;28;20202;-80
2022/10/02 01:35:06;;;;;;;9.80;5.30;;;;;;;18.48;85.38;96431.28;5108237;28;20202;-81
2022/10/02 01:37:38;;;;;;;5.57;4.67;;;;;;;18.70;84.64;96425.81;5090862;28;20281;-80
2022/10/02 01:40:21;;;;;;;9.63;5.13;;;;;;;18.64;84.48;96424.56;5091002;28;20565;-80
2022/10/02 01:42:49;;;;;;;6.47;4.30;;;;;;;18.53;84.76;96421.19;5108347;28;20325;-81
2022/10/02 01:45:16;;;;;;;6.17;4.73;;;;;;;18.11;86.22;96394.28;5108390;28;20198;-80
2022/10/02 01:47:50;;;;;;;6.93;5.13;;;;;;;18.24;85.97;96400.09;5089827;28;20222;-80
2022/10/02 01:50:27;;;;;;;7.70;5.07;;;;;;;18.40;85.62;96428.47;5108809;28;20193;-81
2022/10/02 01:53:06;;;;;;;10.20;5.97;;;;;;;18.56;85.64;96431.44;5108365;28;20213;-79
2022/10/02 01:55:34;;;;;;;5.03;3.30;;;;;;;18.61;84.95;96432.69;5108736;28;20265;-80
2022/10/02 01:58:44;;;;;;;4.10;1.77;;;;;;;18.88;83.10;96421.56;5108375;28;20255;-80
2022/10/02 02:01:23;;;;;;;1.40;1.00;;;;;;;19.15;81.33;96431.38;5009768;28;20235;-85
2022/10/02 02:04:06;;;;;;;3.57;2.47;;;;;;;18.75;81.95;96426.25;5104077;28;20201;-80
2022/10/02 02:06:44;;;;;;;3.53;2.90;;;;;;;18.69;82.36;96426.78;5107937;28;20255;-78
2022/10/02 02:09:24;;;;;;;7.40;3.63;;;;;;;18.63;82.99;96422.03;5108575;28;20209;-81
2022/10/02 02:12:00;;;;;;;7.50;2.87;;;;;;;18.66;82.61;96440.16;5112151;28;20213;-80
2022/10/02 02:14:36;;;;;;;2.37;1.10;;;;;;;18.87;81.37;96437.44;5108028;28;20243;-81
2022/10/02 02:17:25;;;;;;;2.10;0.90;;;;;;;19.33;77.83;96469.16;5090951;28;20197;-82
2022/10/02 02:20:01;;;;;;;1.03;0.90;;;;;;;19.51;76.82;96477.19;5107836;28;20564;-81
2022/10/02 02:22:35;;;;;;;1.40;1.20;;;;;;;19.63;76.32;96494.47;5107480;28;20242;-80
2022/10/02 02:25:14;;;;;;;1.37;1.27;;;;;;;19.57;76.84;96497.66;5108153;28;20187;-83
2022/10/02 02:27:45;;;;;;;2.30;1.70;;;;;;;19.47;77.51;96508.97;5107282;28;20186;-79
2022/10/02 02:30:15;;;;;;;2.63;1.60;;;;;;;19.42;77.63;96487.56;5108450;28;20205;-78
2022/10/02 02:32:49;;;;;;;2.63;1.80;;;;;;;19.48;78.15;96489.63;5107455;28;20187;-79
2022/10/02 02:35:28;;;;;;;2.97;2.13;;;;;;;19.48;78.42;96500.13;5107990;28;20214;-82
2022/10/02 02:38:02;;;;;;;3.53;1.97;;;;;;;19.43;78.31;96478.69;5108332;28;20646;-78
2022/10/02 02:40:35;;;;;;;2.83;2.10;;;;;;;19.54;77.54;96490.06;5107516;28;20344;-79
2022/10/02 02:43:07;;;;;;;2.33;2.00;;;;;;;19.56;77.52;96485.50;5072860;28;20618;-80
2022/10/02 02:45:41;;;;;;;2.93;1.73;;;;;;;19.59;77.21;96480.78;5107178;28;20189;-76
2022/10/02 02:48:15;;;;;;;1.90;1.70;;;;;;;19.61;76.51;96473.59;5108062;28;20206;-77
2022/10/02 02:50:58;;;;;;;1.87;1.50;;;;;;;19.60;76.14;96485.06;5108017;28;20182;-79
2022/10/02 02:53:32;;;;;;;2.60;1.77;;;;;;;19.61;75.17;96493.78;5106394;28;20651;-77
2022/10/02 02:56:02;;;;;;;2.80;1.50;;;;;;;19.59;73.36;96495.72;5089227;28;20191;-77
2022/10/02 02:59:09;;;;;;;2.43;1.40;;;;;;;19.69;74.23;96538.56;5106805;28;20542;-81
2022/10/02 03:01:36;;;;;;;1.87;1.40;;;;;;;19.70;75.04;96516.59;5107180;28;20648;-76
2022/10/02 03:04:03;;;;;;;3.53;1.63;;;;;;;19.63;76.35;96521.56;5107498;28;20186;-79
2022/10/02 03:06:36;;;;;;;2.67;1.73;;;;;;;19.64;76.99;96522.41;5106496;28;20201;-77
2022/10/02 03:09:16;;;;;;;2.40;1.40;;;;;;;19.65;76.93;96530.16;5091124;28;20681;-80
2022/10/02 03:11:55;;;;;;;2.20;1.37;;;;;;;19.63;76.47;96544.38;5107283;28;20224;-79
2022/10/02 03:14:59;;;;;;;1.67;1.40;;;;;;;19.48;73.78;96557.91;5108970;28;20191;-78
2022/10/02 03:17:35;;;;;;;1.30;1.20;;;;;;;19.54;72.80;96561.78;5109442;28;20273;-78
2022/10/02 03:20:51;;;;;;;1.73;1.50;;;;;;;19.48;74.54;96555.28;5107112;28;20732;-81
2022/10/02 03:23:18;;;;;;;1.40;1.30;;;;;;;19.39;70.87;96555.28;5024085;28;20202;-77
2022/10/02 03:25:53;;;;;;;1.40;1.20;;;;;;;19.20;70.94;96527.16;5090948;28;20195;-81
2022/10/02 03:28:35;;;;;;;3.53;1.30;;;;;;;19.35;69.39;96557.34;5106646;28;20276;-77
2022/10/02 03:31:26;;;;;;;1.20;1.00;;;;;;;19.18;69.93;96555.34;5107529;28;20657;-79
2022/10/02 03:33:54;;;;;;;1.10;1.00;;;;;;;19.19;69.39;96570.13;5106981;28;20187;-79
2022/10/02 03:36:23;;;;;;;1.23;0.80;;;;;;;19.11;69.01;96569.13;5100462;28;20198;-80
2022/10/02 03:38:57;;;;;;;1.63;0.83;;;;;;;19.08;67.67;96575.47;5097826;28;20734;-79
2022/10/02 03:41:45;;;;;;;2.13;1.00;;;;;;;19.11;66.64;96569.97;5087676;28;20372;-78
2022/10/02 03:44:12;;;;;;;0.83;0.70;;;;;;;19.20;66.38;96563.09;5096736;28;20226;-83
2022/10/02 03:46:41;;;;;;;1.90;1.03;;;;;;;19.09;65.14;96565.81;5106218;28;20863;-78
2022/10/02 03:49:08;;;;;;;2.13;0.90;;;;;;;19.07;65.25;96550.19;5106410;28;20186;-80
2022/10/02 03:51:36;;;;;;;1.97;0.70;;;;;;;19.10;63.29;96549.91;5105423;28;20192;-77
2022/10/02 03:54:12;;;;;;;1.00;0.80;;;;;;;19.19;62.36;96551.75;5095135;28;20262;-78
2022/10/02 03:56:52;;;;;;;1.13;0.90;;;;;;;19.27;61.47;96554.53;5087176;28;20202;-77
2022/10/02 03:59:31;;;;;;;0.80;0.77;;;;;;;19.31;60.95;96555.06;5088940;28;20245;-76
2022/10/02 04:02:00;;;;;;;2.27;0.77;;;;;;;19.28;61.85;96542.22;5090800;28;20179;-77
2022/10/02 04:04:39;;;;;;;1.07;0.80;;;;;;;19.29;61.80;96568.34;5088485;28;20194;-76
2022/10/02 04:07:15;;;;;;;1.10;0.80;;;;;;;19.30;61.84;96566.56;5090816;28;20190;-78
2022/10/02 04:09:41;;;;;;;0.70;0.63;;;;;;;19.38;60.25;96578.09;5095973;28;20259;-77
2022/10/02 04:12:14;;;;;;;2.23;0.60;;;;;;;19.26;60.31;96552.88;5089437;28;20279;-76
2022/10/02 04:14:52;;;;;;;1.20;0.90;;;;;;;19.40;60.61;96581.41;5090690;28;20221;-79
2022/10/02 04:17:43;;;;;;;0.87;0.70;;;;;;;19.36;60.85;96577.41;5089509;28;20200;-81
2022/10/02 04:20:42;;;;;;;0.77;0.77;;;;;;;19.38;61.44;96595.63;5091846;28;20685;-77
2022/10/02 04:23:35;;;;;;;0.90;0.90;;;;;;;19.38;60.95;96604.34;5097502;27;20196;-75
2022/10/02 04:26:10;;;;;;;0.80;0.80;;;;;;;19.34;60.76;96608.22;5101613;28;20763;-75
2022/10/02 04:28:41;;;;;;;1.40;0.70;;;;;;;19.32;60.67;96623.25;5098242;28;20194;-75
2022/10/02 04:31:12;;;;;;;1.23;1.13;;;;;;;19.37;60.50;96622.88;5090101;28;20198;-79
2022/10/02 04:33:42;;;;;;;2.20;1.20;;;;;;;19.42;61.37;96632.00;5088909;28;20191;-77
2022/10/02 04:36:32;;;;;;;1.00;0.90;;;;;;;19.39;61.40;96645.38;5090214;28;20192;-77
2022/10/02 04:39:38;;;;;;;1.87;1.13;;;;;;;19.43;61.08;96638.09;5043810;28;20211;-79
2022/10/02 04:42:21;;;;;;;1.57;0.97;;;;;;;19.44;60.67;96642.38;5088722;28;20986;-77
2022/10/02 04:44:48;;;;;;;2.73;0.83;;;;;;;19.37;60.90;96631.56;5089909;28;20189;-78
2022/10/02 04:47:35;;;;;;;0.90;0.80;;;;;;;19.41;61.08;96637.41;5088644;28;20184;-81
2022/10/02 04:50:28;;;;;;;3.10;1.03;;;;;;;19.37;61.01;96641.25;5071913;28;20198;-81
2022/10/02 04:53:25;;;;;;;1.77;0.90;;;;;;;19.36;60.77;96647.47;5089843;28;20188;-79
2022/10/02 04:56:18;;;;;;;0.80;0.80;;;;;;;19.31;61.23;96645.19;5070376;28;20198;-79
2022/10/02 04:58:56;;;;;;;1.40;1.00;;;;;;;19.36;61.33;96632.53;5089466;28;20215;-81
2022/10/02 05:01:54;;;;;;;1.37;1.07;;;;;;;19.43;60.94;96657.28;5089606;28;20229;-82
2022/10/02 05:04:33;;;;;;;2.80;1.40;;;;;;;19.54;61.33;96671.31;5070331;28;20211;-82
2022/10/02 05:07:11;;;;;;;3.33;1.43;;;;;;;19.46;61.41;96651.78;5091767;28;20604;-82
2022/10/02 05:10:07;;;;;;;1.77;1.63;;;;;;;19.49;62.17;96669.88;5071357;28;20277;-84
2022/10/02 05:12:49;;;;;;;3.50;2.00;;;;;;;19.44;62.56;96674.72;5047883;28;20299;-81
2022/10/02 05:15:27;;;;;;;3.47;2.13;;;;;;;19.49;62.46;96671.69;5089494;28;20206;-82
2022/10/02 05:18:18;;;;;;;2.23;2.03;;;;;;;19.59;61.65;96675.19;5104578;28;20187;-83
2022/10/02 05:21:00;;;;;;;3.10;2.00;;;;;;;19.69;61.62;96673.41;5099780;28;20226;-78
2022/10/02 05:23:53;;;;;;;2.63;2.43;;;;;;;19.84;61.44;96672.06;5110093;28;20685;-81
2022/10/02 05:27:02;;;;;;;2.87;2.07;;;;;;;19.73;61.24;96685.31;5108850;28;20187;-78
2022/10/02 05:29:43;;;;;;;2.40;2.20;;;;;;;19.71;61.47;96707.44;5045562;28;20296;-76
2022/10/02 05:32:29;;;;;;;1.60;1.50;;;;;;;19.53;61.06;96691.50;5087451;28;20206;-79
2022/10/02 05:35:22;;;;;;;2.33;1.70;;;;;;;19.24;61.56;96669.50;5107981;28;20196;-78
2022/10/02 05:38:08;;;;;;;2.40;2.13;;;;;;;19.36;61.84;96711.31;5090759;28;20748;-77
2022/10/02 05:40:49;;;;;;;2.13;1.80;;;;;;;19.22;61.67;96667.00;5109721;28;20245;-77
2022/10/02 05:43:40;;;;;;;2.77;2.00;;;;;;;19.21;61.66;96678.47;5107553;28;20276;-78
2022/10/02 05:46:13;;;;;;;1.80;1.70;;;;;;;19.25;60.75;96637.84;5109280;28;20286;-76
2022/10/02 05:49:16;;;;;;;3.67;1.80;;;;;;;19.53;60.06;96662.59;5090892;28;20203;-76
2022/10/02 05:52:12;;;;;;;2.27;2.07;;;;;;;19.73;58.66;96677.44;5089188;28;20576;-77
2022/10/02 05:55:32;;;;;;;2.10;1.90;;;;;;;19.84;58.31;96679.97;5109139;28;20184;-76
2022/10/02 05:58:20;;;;;;;2.63;1.87;;;;;;;19.96;56.70;96678.03;5058369;28;20646;-77
2022/10/02 06:01:05;;;;;;;2.37;1.70;;;;;;;19.94;56.19;96693.09;5089120;28;20284;-78
2022/10/02 06:04:10;;;;;;;2.00;1.87;;;;;;;19.89;54.75;96683.00;5108838;28;20184;-77
2022/10/02 06:06:47;;;;;;;1.33;1.23;;;;;;;20.12;54.03;96680.94;5109354;28;20198;-82
2022/10/02 06:09:40;;;;;;;1.83;1.43;;;;;;;20.21;54.38;96688.91;5090874;28;20271;-79
2022/10/02 06:12:25;;;;;;;3.47;1.93;;;;;;;20.25;54.29;96678.91;5110223;28;20686;-78
2022/10/02 06:15:17;;;;;;;3.20;1.70;;;;;;;20.27;53.36;96683.09;5108745;28;20200;-83
2022/10/02 06:17:49;;;;;;;3.10;1.53;;;;;;;20.26;51.95;96685.81;5108093;28;20198;-81
2022/10/02 06:20:39;;;;;;;1.97;1.70;;;;;;;20.39;51.46;96686.38;5108913;28;20849;-77
2022/10/02 06:23:12;;;;;;;1.30;1.20;;;;;;;20.52;50.08;96686.94;5107736;28;20590;-85
2022/10/02 06:25:47;;;;;;;1.40;1.30;;;;;;;20.60;48.58;96705.50;5107981;28;20184;-80
2022/10/02 06:28:34;;;;;;;8.27;1.53;;;;;;;20.73;48.72;96711.28;5088553;28;20293;-78
2022/10/02 06:31:09;;;;;;;1.77;1.20;;;;;;;20.86;48.02;96696.03;5106386;28;20187;-79
2022/10/02 06:33:36;;;;;;;3.20;1.20;;;;;;;20.85;47.18;96709.34;5107695;28;20187;-81
2022/10/02 06:36:06;;;;;;;2.80;1.30;;;;;;;20.85;47.52;96699.66;5088637;28;20215;-81
2022/10/02 06:38:41;;;;;;;4.10;2.07;;;;;;;20.89;47.66;96698.41;5089584;28;20237;-80
2022/10/02 06:41:27;;;;;;;1.87;1.33;;;;;;;20.91;47.35;96703.50;5107960;28;20871;-80
2022/10/02 06:44:26;;;;;;;3.27;1.20;;;;;;;20.78;47.36;96710.88;5088702;28;20224;-77
2022/10/02 06:47:15;;;;;;;0.93;0.90;;;;;;;20.73;47.83;96708.66;5107421;28;20191;-79
2022/10/02 06:49:56;;;;;;;3.53;1.40;;;;;;;20.48;48.13;96711.88;5105284;28;20184;-81
2022/10/02 06:52:48;;;;;;;1.10;1.00;;;;;;;20.26;48.46;96697.19;5086217;28;20223;-79
2022/10/02 06:55:30;;;;;;;1.53;0.90;;;;;;;20.44;48.92;96705.22;5069268;28;20728;-82
2022/10/02 06:58:38;;;;;;;1.23;1.13;;;;;;;20.55;49.18;96718.22;5086766;28;20286;-77
2022/10/02 07:01:34;;;;;;;3.43;1.10;;;;;;;20.74;48.31;96718.22;5068768;28;20219;-82
2022/10/02 07:04:07;;;;;;;0.93;0.90;;;;;;;20.75;46.83;96724.31;5087169;28;20190;-81
2022/10/02 07:06:58;;;;;;;1.30;1.20;;;;;;;20.86;46.64;96740.78;5087694;28;20192;-77
2022/10/02 07:09:57;;;;;;;1.53;1.43;;;;;;;21.02;46.47;96754.22;5086953;28;20177;-79
2022/10/02 07:12:42;;;;;;;1.17;1.07;;;;;;;20.97;46.23;96745.06;5087789;28;20272;-81
2022/10/02 07:15:41;;;;;;;2.37;1.23;;;;;;;20.86;46.37;96745.22;5094776;28;20677;-77
2022/10/02 07:18:34;;;;;;;2.07;1.13;;;;;;;20.68;45.96;96733.75;5065429;28;20287;-80
2022/10/02 07:21:37;;;;;;;1.47;0.77;;;;;;;20.92;44.73;96771.81;5107206;28;20307;-78
2022/10/02 07:24:38;;;;;;;1.10;1.00;;;;;;;20.97;44.16;96776.66;5106744;28;20712;-80
2022/10/02 07:27:10;;;;;;;1.67;0.90;;;;;;;21.00;44.19;96766.69;5105655;28;20267;-79
2022/10/02 07:29:40;;;;;;;1.03;0.83;;;;;;;20.98;44.32;96775.69;5107259;28;20286;-77
2022/10/02 07:32:32;;;;;;;1.87;0.90;;;;;;;21.02;43.97;96774.47;5108953;28;20188;-78
2022/10/02 07:35:07;;;;;;;1.60;0.70;;;;;;;21.08;43.29;96772.09;5117624;28;20233;-79
2022/10/02 07:37:49;;;;;;;1.00;0.80;;;;;;;21.20;42.63;96771.94;5112305;28;20190;-78
2022/10/02 07:40:52;;;;;;;1.83;0.97;;;;;;;21.23;42.66;96753.22;5113458;28;20250;-80
2022/10/02 07:43:59;;;;;;;0.70;0.70;;;;;;;21.26;40.56;96756.41;5084550;28;20706;-79
2022/10/02 07:46:37;;;;;;;2.10;0.80;;;;;;;21.29;40.36;96750.03;5112837;28;20273;-81
2022/10/02 07:49:38;;;;;;;1.53;0.83;;;;;;;21.18;40.45;96758.94;5110141;28;20274;-79
2022/10/02 07:52:18;;;;;;;1.57;0.80;;;;;;;21.32;39.94;96728.66;5093148;28;20187;-81
2022/10/02 07:54:57;;;;;;;1.60;0.70;;;;;;;21.31;38.62;96727.81;5110821;28;20196;-84
2022/10/02 07:57:41;;;;;;;1.80;0.90;;;;;;;21.30;38.93;96736.72;5109773;28;20184;-80
2022/10/02 08:00:16;;;;;;;1.63;0.77;;;;;;;21.46;38.24;96720.28;5110778;28;20213;-82
2022/10/02 08:03:45;;;;;;;0.63;0.63;;;;;;;21.57;37.36;96744.69;5111375;28;20253;-81
2022/10/02 08:06:14;;;;;;;1.13;0.80;;;;;;;21.46;37.90;96726.41;4984688;28;20313;-78
2022/10/02 08:08:50;;;;;;;0.50;0.50;;;;;;;21.70;37.73;96737.25;5089035;28;20663;-82
2022/10/02 08:11:29;;;;;;;1.63;0.70;;;;;;;21.63;37.06;96732.72;5091614;28;20587;-81
2022/10/02 08:14:02;;;;;;;1.80;0.80;;;;;;;21.57;36.66;96720.94;5110344;28;20181;-80
2022/10/02 08:16:35;;;;;;;0.60;0.60;;;;;;;21.61;36.06;96729.38;5109813;28;20193;-79
2022/10/02 08:19:12;;;;;;;3.30;0.87;;;;;;;21.72;35.88;96727.38;5109242;28;20284;-80
2022/10/02 08:21:45;;;;;;;1.60;0.70;;;;;;;21.96;35.71;96734.81;5110681;28;20223;-80
2022/10/02 08:24:22;;;;;;;3.13;0.60;;;;;;;22.20;33.94;96728.94;5109517;28;20260;-80
2022/10/02 08:26:58;;;;;;;0.50;0.50;;;;;;;22.17;33.85;96743.28;5092080;28;20259;-78
2022/10/02 08:29:38;;;;;;;1.57;0.60;;;;;;;22.20;32.18;96750.91;5089296;28;20866;-79
2022/10/02 08:32:11;;;;;;;1.00;0.67;;;;;;;22.19;31.06;96746.59;5109217;28;20184;-79
2022/10/02 08:34:40;;;;;;;6.50;0.80;;;;;;;22.15;31.99;96761.06;5101661;28;20291;-77
2022/10/02 08:37:18;;;;;;;1.70;0.60;;;;;;;21.96;32.85;96745.34;5109407;28;20303;-80
2022/10/02 08:39:51;;;;;;;7.87;1.33;;;;;;;21.93;33.17;96743.00;5109875;28;20233;-75
2022/10/02 08:42:40;;;;;;;1.80;0.90;;;;;;;21.85;33.28;96745.53;5109697;28;20212;-76
2022/10/02 08:45:40;;;;;;;2.10;0.77;;;;;;;21.80;33.36;96750.41;5108556;28;20185;-81
2022/10/02 08:48:22;;;;;;;2.20;0.50;;;;;;;21.66;32.60;96756.13;5109992;28;20220;-75
2022/10/02 08:51:17;;;;;;;2.37;0.77;;;;;;;21.92;32.04;96737.88;5109065;28;20186;-77
2022/10/02 08:54:04;;;;;;;2.63;0.70;;;;;;;22.19;32.46;96761.59;5109525;28;20201;-76
2022/10/02 08:56:42;;;;;;;2.87;1.17;;;;;;;22.22;32.58;96742.81;5061451;28;20284;-76
2022/10/02 08:59:44;;;;;;;1.13;0.80;;;;;;;22.13;33.67;96762.19;5108898;28;20276;-78
2022/10/02 09:02:31;;;;;;;1.85;0.80;;;;;;;22.26;32.65;96755.56;5109371;28;20520;-78
2022/10/02 09:05:22;;;;;;;1.60;0.83;;;;;;;22.34;33.33;96784.69;5110092;28;20680;-80
2022/10/02 09:08:18;;;;;;;2.20;0.73;;;;;;;22.03;33.83;96775.41;5100557;28;20581;-79
2022/10/02 09:11:36;;;;;;;3.43;0.60;;;;;;;21.51;35.15;96779.50;5100797;28;20190;-78
2022/10/02 09:14:27;;;;;;;2.10;0.60;;;;;;;21.60;35.00;96764.63;5055521;28;20683;-81
2022/10/02 09:17:29;;;;;;;2.47;0.70;;;;;;;21.91;34.17;96773.94;5108890;28;20184;-76
2022/10/02 09:20:15;;;;;;;1.10;0.60;;;;;;;22.17;32.63;96785.50;5108099;28;20759;-79
2022/10/02 09:23:01;;;;;;;1.33;0.63;;;;;;;22.37;33.00;96755.38;5109926;28;20315;-81
2022/10/02 09:25:45;;;;;;;2.53;0.70;;;;;;;22.31;33.28;96800.81;5110196;28;20861;-82
2022/10/02 09:28:39;;;;;;;0.53;0.53;;;;;;;21.98;33.62;96776.84;5108185;28;20279;-79
2022/10/02 09:31:13;;;;;;;1.97;0.80;;;;;;;21.75;34.18;96774.56;5109545;28;20522;-76
2022/10/02 09:34:11;;;;;;;1.53;0.70;;;;;;;21.50;34.64;96790.16;5107745;28;20888;-78
2022/10/02 09:36:50;;;;;;;1.73;0.80;;;;;;;21.60;35.09;96796.25;5090016;28;20193;-77
2022/10/02 09:39:50;;;;;;;1.20;0.80;;;;;;;21.84;34.45;96805.34;5109004;28;20219;-78
2022/10/02 09:42:56;;;;;;;1.77;0.50;;;;;;;21.86;34.92;96790.22;5107408;28;20230;-76
2022/10/02 09:45:53;;;;;;;3.00;0.70;;;;;;;22.01;34.05;96780.00;5107743;28;20268;-76
2022/10/02 09:49:01;;;;;;;3.13;1.43;;;;;;;21.99;34.15;96795.16;5090547;28;20599;-77
2022/10/02 09:51:59;;;;;;;0.67;0.67;;;;;;;21.82;34.70;96790.66;5108180;28;20204;-76
2022/10/02 09:54:30;;;;;;;1.23;0.60;;;;;;;21.84;34.62;96831.72;5091641;28;20249;-76
2022/10/02 09:57:33;;;;;;;1.37;0.60;;;;;;;21.70;34.75;96832.16;5108435;28;20190;-75
2022/10/02 10:00:17;;;;;;;1.37;0.90;;;;;;;21.67;35.05;96832.44;5107675;28;20758;-74
2022/10/02 10:02:56;;;;;;;4.13;1.00;;;;;;;21.80;35.52;96834.78;5107943;28;20224;-77
2022/10/02 10:05:34;;;;;;;3.33;0.97;;;;;;;21.83;35.71;96843.25;5108603;28;20179;-78
2022/10/02 10:08:21;;;;;;;1.60;0.90;;;;;;;21.89;35.58;96828.66;5108049;28;20685;-81
2022/10/02 10:11:10;;;;;;;3.50;0.90;;;;;;;21.79;36.04;96838.38;5090670;28;20581;-79
2022/10/02 10:13:55;;;;;;;2.10;0.97;;;;;;;22.02;36.38;96842.34;5090528;28;20195;-79
2022/10/02 10:16:34;;;;;;;1.40;0.70;;;;;;;21.91;36.97;96825.88;5107695;28;20213;-80
2022/10/02 10:19:30;;;;;;;1.57;0.90;;;;;;;22.00;36.62;96862.75;5109312;28;20767;-81
2022/10/02 10:22:21;;;;;;;2.27;0.90;;;;;;;22.13;36.89;96847.44;5088896;28;20213;-78
2022/10/02 10:25:01;;;;;;;1.67;0.80;;;;;;;22.26;36.29;96857.63;5089026;28;20274;-80
2022/10/02 10:27:50;;;;;;;2.50;0.90;;;;;;;21.80;36.23;96871.69;5108071;28;20242;-77
2022/10/02 10:30:29;;;;;;;1.53;0.80;;;;;;;21.95;36.63;96867.63;5106849;28;20191;-83
2022/10/02 10:33:08;;;;;;;1.23;0.63;;;;;;;21.89;36.72;96876.13;5107915;28;20193;-79
2022/10/02 10:35:44;;;;;;;2.27;1.20;;;;;;;21.64;37.43;96880.16;5089663;28;20619;-81
2022/10/02 10:38:32;;;;;;;2.30;1.00;;;;;;;21.63;36.85;96891.69;5106823;28;20184;-78
2022/10/02 10:41:10;;;;;;;1.77;0.83;;;;;;;21.62;37.44;96886.53;5107601;28;20218;-79
2022/10/02 10:44:00;;;;;;;1.03;0.77;;;;;;;21.71;37.36;96860.19;5088145;28;20219;-78
2022/10/02 10:46:58;;;;;;;2.20;0.90;;;;;;;21.53;37.88;96890.06;5107185;28;20296;-77
2022/10/02 10:49:25;;;;;;;0.90;0.80;;;;;;;21.66;37.92;96885.28;5107913;28;20190;-79
2022/10/02 10:52:21;;;;;;;3.63;0.90;;;;;;;21.86;37.83;96871.94;5106669;28;20268;-76
2022/10/02 10:55:20;;;;;;;2.20;0.90;;;;;;;21.94;37.16;96873.03;5107888;28;20188;-78
2022/10/02 10:57:53;;;;;;;0.80;0.70;;;;;;;21.89;37.21;96870.84;5107807;28;20299;-76
2022/10/02 11:00:21;;;;;;;6.40;1.00;;;;;;;21.87;37.64;96864.88;5108430;28;20203;-76
2022/10/02 11:03:07;;;;;;;2.93;0.60;;;;;;;21.79;37.31;96859.47;5109993;28;20221;-77
2022/10/02 11:06:03;;;;;;;3.60;0.60;;;;;;;21.93;36.88;96864.31;5109709;28;20219;-78
2022/10/02 11:08:49;;;;;;;1.87;1.00;;;;;;;21.90;37.12;96872.50;5108139;28;20280;-79
2022/10/02 11:11:38;;;;;;;1.07;0.60;;;;;;;21.75;37.27;96861.56;5107695;28;20272;-77
2022/10/02 11:14:54;;;;;;;1.97;0.83;;;;;;;21.65;37.39;96855.47;5107511;28;20189;-80
2022/10/02 11:17:42;;;;;;;1.60;0.70;;;;;;;21.60;37.92;96851.59;5058806;28;20201;-80
2022/10/02 11:20:35;;;;;;;2.73;1.13;;;;;;;21.55;37.67;96861.75;5111773;28;20192;-78
2022/10/02 11:23:18;;;;;;;1.20;0.70;;;;;;;21.45;37.92;96867.00;5111421;28;20218;-77
2022/10/02 11:26:44;;;;;;;1.37;0.80;;;;;;;21.60;37.75;96864.78;5092900;28;20685;-77
2022/10/02 11:29:29;;;;;;;1.30;0.60;;;;;;;21.64;37.16;96869.63;5028861;28;20211;-79
2022/10/02 11:31:59;;;;;;;1.97;0.60;;;;;;;21.72;37.34;96874.19;5028466;28;20222;-81
2022/10/02 11:35:07;;;;;;;3.03;1.13;;;;;;;21.72;37.26;96868.94;5080237;28;20202;-78
2022/10/02 11:37:59;;;;;;;1.47;0.63;;;;;;;21.37;38.03;96876.63;5112236;28;20185;-76
2022/10/02 11:40:48;;;;;;;3.80;0.77;;;;;;;21.60;37.98;96860.34;5112175;28;20193;-76
2022/10/02 11:43:33;;;;;;;2.93;0.63;;;;;;;21.58;38.38;96854.38;5110549;28;20229;-82
2022/10/02 11:46:20;;;;;;;2.07;0.80;;;;;;;21.77;38.53;96856.97;5113369;28;20292;-81
2022/10/02 11:49:19;;;;;;;1.33;0.70;;;;;;;21.75;38.27;96869.47;5093366;28;20188;-84
2022/10/02 11:52:07;;;;;;;3.57;0.87;;;;;;;21.75;38.04;96855.44;5093369;28;20206;-83
2022/10/02 11:54:46;;;;;;;1.63;0.70;;;;;;;21.77;37.83;96840.31;5112794;28;20184;-78
2022/10/02 11:57:44;;;;;;;2.03;0.70;;;;;;;21.72;38.00;96847.84;5112357;28;20192;-77
2022/10/02 12:00:30;;;;;;;0.97;0.60;;;;;;;21.70;37.68;96837.41;5062700;28;20901;-81
2022/10/02 12:03:20;;;;;;;2.63;0.90;;;;;;;21.65;37.86;96844.94;5112075;28;20725;-80
2022/10/02 12:05:57;;;;;;;2.03;0.70;;;;;;;21.69;37.38;96830.50;5059158;28;20194;-81
2022/10/02 12:09:01;;;;;;;2.10;0.50;;;;;;;21.93;37.48;96851.13;5093017;28;20674;-78
2022/10/02 12:12:01;;;;;;;1.07;0.80;;;;;;;21.73;38.27;96828.41;5092507;28;20199;-76
2022/10/02 12:14:31;;;;;;;0.97;0.70;;;;;;;22.00;37.96;96854.84;5070966;28;20196;-84
2022/10/02 12:17:07;;;;;;;1.50;0.80;;;;;;;21.95;38.13;96872.91;5099716;28;20702;-80
2022/10/02 12:26:57;;;;;;;2.23;0.80;;;;;;;21.74;38.14;96877.53;5089350;28;20185;-85
2022/10/02 12:28:54;;;;;;;0.87;0.87;;;;;;;22.05;37.80;96868.41;5089859;28;20190;-77
2022/10/02 12:31:41;;;;;;;4.27;0.70;;;;;;;21.67;37.85;96823.69;5088599;28;20201;-79
2022/10/02 12:34:42;;;;;;;0.60;0.60;;;;;;;21.79;38.65;96862.09;5071887;28;20202;-79
2022/10/02 12:37:35;;;;;;;0.70;0.70;;;;;;;21.82;38.52;96862.66;5089054;28;20209;-80
2022/10/02 12:40:47;;;;;;;1.03;0.70;;;;;;;21.75;38.67;96858.09;5088520;28;20205;-82
2022/10/02 12:43:42;;;;;;;0.70;0.70;;;;;;;21.60;38.51;96865.59;5007204;28;20263;-82
2022/10/02 12:46:35;;;;;;;0.93;0.63;;;;;;;21.44;38.83;96877.69;5089578;28;20225;-79
2022/10/02 12:49:33;;;;;;;1.03;0.60;;;;;;;21.55;38.62;96904.75;5088599;28;20190;-78
2022/10/02 12:52:39;;;;;;;3.33;0.80;;;;;;;21.70;39.01;96913.88;5089819;28;20620;-77
2022/10/02 12:55:27;;;;;;;3.60;0.93;;;;;;;21.44;39.00;96927.78;5089694;28;20235;-79
2022/10/02 12:58:21;;;;;;;1.23;0.80;;;;;;;21.30;39.81;96931.66;5089353;28;20281;-78
2022/10/02 13:01:06;;;;;;;0.97;0.90;;;;;;;21.39;39.97;96911.56;5089561;28;20195;-78